AK07 weather

Dog Fish Bay Airport
Nanwalek, Alaska, United States

Public forecast

Using degrees Fahrenheit for public forecast. Weather courtesy of forecast.io.

Closest aviation weather report (METAR) to Dog Fish Bay Airport

Closest report is Seldovia Airport, 13.2 nm (24.4 km) NNE. Retrieved 2020/08/05 13:53 UTC (20 minutes ago):

PASO 051353Z AUTO 00000KT CLR 08/07 A2970 RMK AO2 SLP058 T00780067 TSNO

Closest aviation forecast (TAF) to Dog Fish Bay Airport

Closest forecast is Homer Airport, 27.2 nm (50.4 km) NNE. Retrieved 2020/08/05 12:24 UTC (2 hours ago):

TAF PAHO 051120Z 0512/0612 23008KT P6SM BKN100 FM060600 13009KT P6SM VCSH BKN050 OVC080